Time;durP1;ratioP1;P1;durP2;ratioP2;P2;SDS_P1;SDS_P2;PMS_P1;PMS_P2;Temp;Humidity;BMP_temperature;BMP_pressure;BME280_temperature;BME280_humidity;BME280_pressure;Samples;Min_cycle;Max_cycle;Signal;HPM_P1;HPM_P2
2022/06/17 00:01:54;;;;;;;1.80;1.70;;;;;;;20.54;71.71;97647.19;6191807;22;20161;-93
2022/06/17 00:04:21;;;;;;;1.87;1.77;;;;;;;20.52;71.61;97634.34;6191275;22;20167;-94
2022/06/17 00:06:49;;;;;;;1.80;1.70;;;;;;;20.95;71.85;97718.47;6216052;22;20430;-93
2022/06/17 00:09:17;;;;;;;1.90;1.80;;;;;;;21.09;72.16;97747.94;6191370;22;20185;-94
2022/06/17 00:11:44;;;;;;;1.90;1.80;;;;;;;20.75;72.29;97688.78;6191198;22;20204;-93
2022/06/17 00:14:19;;;;;;;1.80;1.70;;;;;;;20.84;71.62;97715.50;6190785;22;20172;-93
2022/06/17 00:16:45;;;;;;;1.90;1.80;;;;;;;21.07;71.78;97758.09;6191530;22;20172;-94
2022/06/17 00:19:12;;;;;;;1.80;1.70;;;;;;;20.41;71.72;97640.78;6191548;22;20169;-94
2022/06/17 00:21:43;;;;;;;1.90;1.80;;;;;;;21.10;71.94;97742.88;6191130;22;20191;-94
2022/06/17 00:24:30;;;;;;;1.83;1.73;;;;;;;22.53;71.93;97995.97;6216138;22;20180;-94
2022/06/17 00:26:57;;;;;;;1.70;1.60;;;;;;;20.21;71.86;97600.03;6214920;22;20205;-93
2022/06/17 00:29:25;;;;;;;1.87;1.77;;;;;;;20.39;71.97;97633.84;6191466;22;20211;-92
2022/06/17 00:31:52;;;;;;;1.90;1.80;;;;;;;21.09;71.62;97774.38;6190977;22;20157;-93
2022/06/17 00:34:19;;;;;;;1.70;1.60;;;;;;;20.02;71.92;97600.16;6191304;22;20177;-94
2022/06/17 00:36:46;;;;;;;1.70;1.60;;;;;;;21.06;72.06;97783.59;6191215;22;20203;-94
2022/06/17 00:39:14;;;;;;;1.80;1.70;;;;;;;21.04;71.77;97769.88;6191509;22;20183;-93
2022/06/17 00:41:42;;;;;;;1.90;1.80;;;;;;;21.93;72.08;97944.41;6214746;22;20137;-94
2022/06/17 00:44:30;;;;;;;1.80;1.70;;;;;;;20.92;72.22;97769.41;6190694;22;20200;-92
2022/06/17 00:47:29;;;;;;;2.10;1.90;;;;;;;20.90;71.87;97745.53;6188576;22;20177;-93
2022/06/17 00:50:13;;;;;;;1.73;1.63;;;;;;;21.06;71.60;97786.16;6185114;22;20184;-94
2022/06/17 00:52:49;;;;;;;1.80;1.70;;;;;;;22.54;71.82;98013.13;6215322;22;20172;-93
2022/06/17 00:55:31;;;;;;;1.90;1.80;;;;;;;20.55;72.17;97682.97;6213971;22;20160;-94
2022/06/17 00:57:58;;;;;;;2.33;1.70;;;;;;;20.39;71.64;97669.59;6191003;22;20433;-94
2022/06/17 01:00:26;;;;;;;1.83;1.73;;;;;;;20.56;71.59;97711.91;6189578;22;20183;-93
2022/06/17 01:03:00;;;;;;;1.80;1.70;;;;;;;21.09;72.02;97792.25;6190917;22;20175;-93
2022/06/17 01:05:38;;;;;;;1.70;1.60;;;;;;;21.21;71.90;97840.34;6215518;22;20149;-93
2022/06/17 01:09:57;;;;;;;2.13;2.03;;;;;;;21.03;71.69;97807.38;6189788;22;20231;-93
2022/06/17 01:11:06;;;;;;;1.70;1.60;;;;;;;20.93;72.19;97774.59;6239923;22;20212;-93
2022/06/17 01:13:33;;;;;;;1.80;1.70;;;;;;;20.75;71.87;97742.44;6189966;22;20158;-93
2022/06/17 01:16:00;;;;;;;1.87;1.77;;;;;;;21.16;71.72;97824.88;6190120;22;20184;-93
2022/06/17 01:18:27;;;;;;;1.90;1.70;;;;;;;20.92;72.01;97775.41;6190184;23;20173;-93
2022/06/17 01:20:55;;;;;;;1.87;1.77;;;;;;;20.73;71.57;97734.72;6190647;22;20162;-94
2022/06/17 01:23:22;;;;;;;1.80;1.70;;;;;;;20.72;71.96;97739.75;6215097;22;20169;-95
2022/06/17 01:25:49;;;;;;;1.70;1.60;;;;;;;22.00;71.91;97971.94;6190721;22;20169;-93
2022/06/17 01:28:17;;;;;;;1.60;1.50;;;;;;;22.20;72.16;98010.19;6190564;23;20185;-94
2022/06/17 01:30:46;;;;;;;1.73;1.40;;;;;;;21.73;71.83;97934.31;6191154;22;20153;-93
2022/06/17 01:33:20;;;;;;;1.70;1.60;;;;;;;20.31;71.66;97676.13;6191001;22;20157;-94
2022/06/17 01:35:54;;;;;;;1.90;1.70;;;;;;;22.01;71.93;97973.66;6215685;22;20137;-94
2022/06/17 01:38:21;;;;;;;1.70;1.60;;;;;;;20.52;71.95;97713.47;6215932;22;20141;-93
2022/06/17 01:40:48;;;;;;;1.80;1.70;;;;;;;20.47;71.77;97704.81;6190364;22;20157;-94
2022/06/17 01:43:17;;;;;;;1.73;1.63;;;;;;;20.48;71.79;97683.56;6215343;22;20187;-93
2022/06/17 01:45:48;;;;;;;1.80;1.70;;;;;;;21.65;71.80;97892.22;6189905;22;20169;-94
2022/06/17 01:48:14;;;;;;;2.00;1.90;;;;;;;20.74;71.73;97728.78;6190307;22;20200;-93
2022/06/17 01:50:41;;;;;;;1.70;1.60;;;;;;;21.99;72.20;97953.16;6191025;23;20184;-93
2022/06/17 01:53:13;;;;;;;2.97;1.70;;;;;;;21.66;71.79;97872.66;6192972;22;20145;-94
2022/06/17 01:55:44;;;;;;;1.60;1.50;;;;;;;22.00;72.47;97942.09;6216582;22;20191;-94
2022/06/17 01:58:31;;;;;;;1.80;1.70;;;;;;;22.52;71.93;97996.81;6192976;22;20172;-93
2022/06/17 02:00:58;;;;;;;2.27;1.63;;;;;;;20.97;71.72;97748.38;6242265;22;20146;-94
2022/06/17 02:03:30;;;;;;;1.70;1.60;;;;;;;21.10;71.90;97754.75;6217301;22;20223;-90
2022/06/17 02:06:12;;;;;;;1.80;1.70;;;;;;;20.99;71.66;97738.22;6216763;22;20142;-92
2022/06/17 02:08:39;;;;;;;1.53;1.43;;;;;;;21.79;71.62;97892.72;6192535;22;20181;-93
2022/06/17 02:11:05;;;;;;;2.00;1.90;;;;;;;21.93;71.69;97903.47;6192534;22;20177;-94
2022/06/17 02:13:38;;;;;;;1.90;1.80;;;;;;;22.08;71.52;97938.09;6194994;22;20180;-93
2022/06/17 02:16:05;;;;;;;1.90;1.80;;;;;;;21.42;71.66;97820.66;6216734;22;20177;-94
2022/06/17 02:18:32;;;;;;;1.70;1.60;;;;;;;20.39;71.60;97637.28;6192513;22;20217;-94
2022/06/17 02:21:00;;;;;;;2.07;1.70;;;;;;;20.98;71.73;97736.44;6192350;22;20192;-94
2022/06/17 02:23:27;;;;;;;1.90;1.80;;;;;;;21.08;71.46;97777.72;6192661;22;20188;-93
2022/06/17 02:25:53;;;;;;;1.70;1.60;;;;;;;21.26;71.69;97796.25;6191943;22;20172;-93
2022/06/17 02:28:20;;;;;;;3.00;1.70;;;;;;;20.87;71.64;97740.31;6192437;22;20200;-94
2022/06/17 02:30:48;;;;;;;1.90;1.80;;;;;;;21.41;71.43;97850.47;6192227;22;20153;-93
2022/06/17 02:33:15;;;;;;;1.83;1.73;;;;;;;20.75;72.02;97735.63;6241935;22;20184;-94
2022/06/17 02:35:48;;;;;;;1.70;1.60;;;;;;;21.43;71.94;97853.94;6217056;22;20173;-94
2022/06/17 02:38:16;;;;;;;1.73;1.53;;;;;;;20.85;71.54;97767.47;6217561;22;20153;-93
2022/06/17 02:40:45;;;;;;;2.00;1.90;;;;;;;21.00;71.54;97798.72;6216901;22;20188;-93
2022/06/17 02:43:14;;;;;;;1.83;1.73;;;;;;;21.58;72.07;97890.28;6192075;22;20161;-93
2022/06/17 02:45:46;;;;;;;1.97;1.77;;;;;;;21.34;71.71;97858.75;6191808;22;20176;-93
2022/06/17 02:48:27;;;;;;;1.70;1.60;;;;;;;22.15;71.88;98019.44;6192041;22;20258;-94
2022/06/17 02:50:56;;;;;;;2.07;1.97;;;;;;;21.10;71.83;97806.75;6216981;22;20141;-94
2022/06/17 02:53:33;;;;;;;1.80;1.70;;;;;;;20.53;71.68;97710.13;6216794;22;20173;-94
2022/06/17 02:56:02;;;;;;;1.60;1.47;;;;;;;20.64;71.58;97713.94;6216051;22;20211;-94
2022/06/17 02:58:56;;;;;;;1.70;1.60;;;;;;;20.97;71.60;97780.72;6216657;22;20177;-93
2022/06/17 03:01:25;;;;;;;1.70;1.60;;;;;;;21.89;71.75;97939.97;6216187;22;20149;-93
2022/06/17 03:03:52;;;;;;;1.80;1.70;;;;;;;21.78;71.96;97938.72;6191836;22;20161;-94
2022/06/17 03:06:31;;;;;;;1.70;1.60;;;;;;;22.08;71.46;97991.84;6216379;22;20184;-94
2022/06/17 03:08:58;;;;;;;1.90;1.80;;;;;;;20.61;71.65;97731.72;6191920;22;20168;-95
2022/06/17 03:11:25;;;;;;;1.90;1.80;;;;;;;21.17;71.63;97818.91;6192121;22;20157;-92
2022/06/17 03:13:57;;;;;;;1.90;1.80;;;;;;;21.60;71.57;97906.56;6191840;22;20164;-93
2022/06/17 03:16:24;;;;;;;1.87;1.77;;;;;;;20.58;71.71;97711.19;6191475;22;20212;-93
2022/06/17 03:18:51;;;;;;;1.80;1.70;;;;;;;21.89;71.45;97951.09;6191589;22;20240;-93
2022/06/17 03:21:20;;;;;;;2.00;1.90;;;;;;;20.97;71.63;97796.03;6190906;22;20184;-94
2022/06/17 03:24:11;;;;;;;2.00;1.90;;;;;;;20.73;71.66;97761.94;6191099;22;20161;-93
2022/06/17 03:27:00;;;;;;;1.80;1.70;;;;;;;21.83;71.72;97935.53;6217502;22;20177;-93
2022/06/17 03:29:27;;;;;;;1.73;1.63;;;;;;;22.31;71.95;98034.47;6190300;22;20211;-93
2022/06/17 03:32:10;;;;;;;1.70;1.60;;;;;;;21.16;71.70;97841.88;6191700;22;20169;-93
2022/06/17 03:34:40;;;;;;;2.00;1.90;;;;;;;20.98;71.62;97803.75;6216480;22;20141;-94
2022/06/17 03:37:10;;;;;;;1.80;1.70;;;;;;;20.86;71.65;97785.41;6192121;22;20192;-94
2022/06/17 03:39:39;;;;;;;1.83;1.73;;;;;;;22.53;71.77;98074.53;6191622;22;20189;-94
2022/06/17 03:42:06;;;;;;;1.70;1.60;;;;;;;22.53;71.73;98060.03;6216308;22;20176;-93
2022/06/17 03:44:36;;;;;;;1.70;1.60;;;;;;;21.07;71.28;97803.22;6215965;22;20183;-93
2022/06/17 03:47:12;;;;;;;2.93;1.90;;;;;;;20.57;71.22;97711.13;6190991;22;20228;-94
2022/06/17 03:49:41;;;;;;;1.70;1.60;;;;;;;21.10;71.53;97813.53;6191388;22;20181;-93
2022/06/17 03:52:25;;;;;;;1.77;1.67;;;;;;;20.78;71.88;97752.75;6191413;22;20208;-93
2022/06/17 03:54:52;;;;;;;2.10;2.00;;;;;;;20.25;71.34;97674.19;6215801;22;20153;-94
2022/06/17 03:57:19;;;;;;;1.97;1.87;;;;;;;20.81;71.78;97794.59;6216233;22;20193;-94
2022/06/17 03:59:47;;;;;;;2.00;1.90;;;;;;;20.51;71.73;97749.16;6191756;22;20153;-94
2022/06/17 04:02:14;;;;;;;1.83;1.73;;;;;;;20.57;71.63;97747.72;6191146;22;20188;-94
2022/06/17 04:04:43;;;;;;;2.00;1.90;;;;;;;22.10;71.62;98015.81;6191612;22;20184;-93
2022/06/17 04:07:11;;;;;;;2.00;1.90;;;;;;;22.10;71.82;98020.06;6191284;22;20241;-93
2022/06/17 04:09:41;;;;;;;2.10;2.00;;;;;;;21.58;71.77;97927.75;6241024;22;20184;-93
2022/06/17 04:12:14;;;;;;;1.90;1.80;;;;;;;22.53;71.76;98083.09;6215611;22;20161;-94
2022/06/17 04:15:06;;;;;;;1.80;1.70;;;;;;;22.54;71.57;98132.63;6215877;22;20169;-93
2022/06/17 04:17:41;;;;;;;1.80;1.70;;;;;;;20.74;71.66;97804.53;6215715;22;20228;-93
2022/06/17 04:20:08;;;;;;;1.70;1.60;;;;;;;22.53;71.56;98105.28;6191481;22;20184;-93
2022/06/17 04:22:36;;;;;;;1.83;1.73;;;;;;;20.18;71.52;97696.88;6215743;22;20157;-93
2022/06/17 04:25:05;;;;;;;1.87;1.77;;;;;;;20.03;71.45;97689.50;6216213;22;20161;-94
2022/06/17 04:30:22;;;;;;;1.83;1.73;;;;;;;20.18;71.48;97719.84;6219874;22;20212;-93
2022/06/17 04:32:50;;;;;;;1.80;1.70;;;;;;;20.89;71.53;97844.28;6191174;22;20167;-93
2022/06/17 04:35:17;;;;;;;1.90;1.80;;;;;;;21.33;71.53;97932.84;6190458;22;20157;-94
2022/06/17 04:37:45;;;;;;;1.80;1.70;;;;;;;20.42;71.52;97770.13;6191302;22;20192;-94
2022/06/17 04:40:42;;;;;;;1.90;1.80;;;;;;;22.53;71.67;98125.78;6191432;22;20157;-94
2022/06/17 04:43:34;;;;;;;2.37;2.20;;;;;;;21.00;71.53;97868.59;6181943;22;20164;-93
2022/06/17 04:46:07;;;;;;;1.80;1.70;;;;;;;22.53;71.77;98130.91;6215256;22;20206;-95
2022/06/17 04:48:35;;;;;;;1.90;1.80;;;;;;;21.11;71.65;97895.38;6240600;22;20168;-93
2022/06/17 04:51:02;;;;;;;1.73;1.63;;;;;;;20.93;71.43;97864.00;6240693;22;20161;-95
2022/06/17 04:53:29;;;;;;;1.90;1.80;;;;;;;21.08;71.35;97900.38;6190842;22;20170;-92
2022/06/17 04:55:55;;;;;;;1.80;1.70;;;;;;;20.51;71.59;97803.66;6190502;22;20156;-94
2022/06/17 04:58:25;;;;;;;1.90;1.80;;;;;;;21.54;71.41;97970.28;6192414;22;20165;-95
2022/06/17 05:09:03;;;;;;;1.80;1.70;;;;;;;19.72;71.39;97654.31;6249783;22;20203;-94
2022/06/17 05:11:35;;;;;;;1.70;1.60;;;;;;;22.48;71.41;98122.16;6253841;22;20155;-95
2022/06/17 05:14:31;;;;;;;2.13;2.03;;;;;;;22.56;71.65;98125.88;6253174;22;20181;-95
2022/06/17 05:19:31;;;;;;;2.07;1.97;;;;;;;18.72;71.53;97511.00;6288638;22;20188;-92
2022/06/17 05:21:57;;;;;;;2.00;1.90;;;;;;;18.23;72.07;97438.53;6253650;22;20206;-93
2022/06/17 05:26:59;;;;;;;1.80;1.70;;;;;;;17.09;71.05;97195.75;6299806;22;20263;-94
2022/06/17 05:45:37;;;;;;;2.07;1.97;;;;;;;19.51;70.90;97640.72;6281928;22;20251;-91
2022/06/17 05:50:45;;;;;;;1.97;1.87;;;;;;;19.68;71.26;97667.75;6259641;22;20176;-94
2022/06/17 05:53:12;;;;;;;2.00;1.90;;;;;;;19.09;71.04;97612.63;6230416;22;20144;-93
2022/06/17 06:03:59;;;;;;;1.93;1.83;;;;;;;17.41;71.19;97301.22;6331181;22;20186;-90
2022/06/17 06:09:01;;;;;;;1.90;1.80;;;;;;;19.52;71.48;97667.97;6253446;22;20180;-94
2022/06/17 06:16:45;;;;;;;1.93;1.83;;;;;;;19.82;73.00;97732.91;6291737;22;20175;-94
2022/06/17 06:21:53;;;;;;;2.90;1.90;;;;;;;19.06;71.23;97613.41;6334801;22;20179;-94
2022/06/17 06:24:34;;;;;;;1.63;1.53;;;;;;;18.87;71.25;97588.00;6260561;22;20200;-94
2022/06/17 06:32:37;;;;;;;1.90;1.80;;;;;;;19.56;70.93;97684.25;6274903;22;20179;-93
2022/06/17 06:35:18;;;;;;;1.90;1.80;;;;;;;18.78;70.78;97599.47;6238867;22;20143;-94
2022/06/17 06:37:59;;;;;;;2.00;1.90;;;;;;;18.80;71.50;97564.78;6229019;23;20188;-94
2022/06/17 06:48:42;;;;;;;1.97;1.87;;;;;;;22.58;71.45;98213.91;6271234;22;20195;-95
2022/06/17 06:59:38;;;;;;;1.90;1.80;;;;;;;18.35;70.78;97501.78;6310562;22;20171;-94
2022/06/17 07:04:53;;;;;;;2.10;2.00;;;;;;;18.07;71.29;97509.94;6288154;22;20200;-94
2022/06/17 07:07:40;;;;;;;2.07;1.97;;;;;;;22.58;71.41;98231.81;6245164;22;20183;-93
2022/06/17 07:10:12;;;;;;;1.90;1.80;;;;;;;21.90;71.25;98113.19;6229504;22;20207;-94
2022/06/17 07:15:18;;;;;;;2.00;1.90;;;;;;;19.82;71.05;97757.53;6282119;22;20183;-94
2022/06/17 07:25:44;;;;;;;2.00;1.90;;;;;;;20.11;70.82;97861.63;6302352;22;20190;-90
2022/06/17 07:28:31;;;;;;;2.03;1.80;;;;;;;16.86;71.15;97292.03;6261883;22;20176;-94
2022/06/17 07:30:58;;;;;;;2.03;1.93;;;;;;;18.29;71.08;97529.53;6215177;22;20210;-95
2022/06/17 07:33:39;;;;;;;1.90;1.80;;;;;;;20.09;71.99;97827.50;6243658;22;20205;-94
2022/06/17 07:46:56;;;;;;;1.80;1.70;;;;;;;19.53;70.64;97724.91;6271303;22;20172;-94
2022/06/17 07:49:23;;;;;;;1.90;1.80;;;;;;;19.57;71.15;97773.53;6199310;22;20188;-92
2022/06/17 07:52:04;;;;;;;2.43;1.93;;;;;;;19.40;70.80;97708.28;6225182;22;20160;-95
2022/06/17 07:54:31;;;;;;;1.93;1.83;;;;;;;19.21;70.88;97695.53;6248988;22;20171;-94
2022/06/17 08:07:43;;;;;;;1.93;1.83;;;;;;;19.83;71.46;97802.63;6236033;22;20210;-94
2022/06/17 08:18:15;;;;;;;2.03;1.93;;;;;;;18.07;71.22;97502.31;6335307;22;20200;-92
2022/06/17 08:26:06;;;;;;;1.87;1.77;;;;;;;21.11;71.70;98051.28;6277399;22;20179;-93
2022/06/17 08:28:32;;;;;;;2.07;1.70;;;;;;;19.43;71.93;97721.13;6279253;22;20172;-94
2022/06/17 08:33:40;;;;;;;2.30;2.20;;;;;;;18.79;70.79;97662.31;6326940;22;20216;-94
2022/06/17 08:36:12;;;;;;;2.20;2.00;;;;;;;20.05;71.20;97866.47;6227509;22;20188;-95
2022/06/17 08:39:03;;;;;;;2.00;1.90;;;;;;;18.42;71.09;97540.31;6304289;22;20202;-92
2022/06/17 08:41:53;;;;;;;2.07;1.87;;;;;;;18.48;70.94;97576.19;6304919;22;20147;-93
2022/06/17 08:47:47;;;;;;;1.83;1.73;;;;;;;21.30;71.65;98114.22;6322986;22;20246;-92
2022/06/17 08:50:37;;;;;;;2.00;1.90;;;;;;;17.91;70.87;97499.91;6287586;22;20204;-91
2022/06/17 08:54:06;;;;;;;1.70;1.60;;;;;;;19.25;71.21;97699.09;6261230;22;20198;-91
2022/06/17 08:57:18;;;;;;;1.90;1.80;;;;;;;22.59;71.21;98264.34;6308812;22;20218;-94
2022/06/17 09:18:51;;;;;;;1.90;1.80;;;;;;;18.77;70.96;97613.88;6268837;22;20207;-94
2022/06/17 09:24:24;;;;;;;2.00;1.80;;;;;;;18.94;71.03;97701.16;6283294;22;20194;-91
2022/06/17 09:30:42;;;;;;;1.80;1.70;;;;;;;18.66;71.03;97571.84;6275567;22;20177;-93
2022/06/17 09:43:58;;;;;;;1.80;1.70;;;;;;;19.57;71.05;97748.03;6255068;22;20200;-94
2022/06/17 09:46:45;;;;;;;2.00;1.90;;;;;;;18.21;71.59;97532.59;6225597;22;20157;-92
2022/06/17 09:57:54;;;;;;;2.17;2.00;;;;;;;18.57;70.79;97573.16;6249542;22;20188;-92
2022/06/17 10:09:00;;;;;;;1.90;1.80;;;;;;;22.61;71.26;98260.13;6303688;22;20183;-94
2022/06/17 10:11:51;;;;;;;1.83;1.73;;;;;;;19.44;71.40;97705.03;6244608;22;20242;-91
2022/06/17 10:22:31;;;;;;;2.00;1.90;;;;;;;22.61;71.42;98237.94;6284356;22;20186;-91
2022/06/17 10:25:39;;;;;;;1.90;1.80;;;;;;;22.60;71.38;98228.53;6279935;22;20151;-93
2022/06/17 10:33:32;;;;;;;2.00;1.90;;;;;;;22.61;71.35;98231.94;6305100;22;20174;-91
2022/06/17 10:35:59;;;;;;;1.90;1.80;;;;;;;20.48;71.49;97910.78;6237687;22;20219;-93
2022/06/17 10:38:43;;;;;;;1.70;1.60;;;;;;;21.53;70.79;98045.25;6232894;22;20234;-93
2022/06/17 10:41:10;;;;;;;1.70;1.60;;;;;;;22.62;71.70;98229.44;6215890;23;20211;-94
2022/06/17 10:50:03;;;;;;;2.00;1.90;;;;;;;22.62;71.21;98232.00;6287063;22;20176;-94
2022/06/17 11:03:52;;;;;;;1.90;1.80;;;;;;;22.62;71.37;98226.88;6239390;22;20202;-94
2022/06/17 11:17:52;;;;;;;1.90;1.80;;;;;;;22.63;71.24;98238.00;6302113;22;20209;-93
2022/06/17 11:23:18;;;;;;;2.00;1.90;;;;;;;22.63;71.17;98217.50;6299848;22;20207;-94
2022/06/17 11:28:44;;;;;;;2.00;1.90;;;;;;;22.62;71.25;98218.34;6297360;22;20198;-93
2022/06/17 11:56:46;;;;;;;1.97;1.87;;;;;;;19.59;72.00;97743.00;6243573;23;20172;-94
2022/06/17 12:02:14;;;;;;;1.90;1.80;;;;;;;19.58;70.85;97687.72;6269845;22;20159;-94
2022/06/17 12:22:07;;;;;;;1.80;1.70;;;;;;;22.62;71.32;98193.56;6285444;22;20194;-91
2022/06/17 12:25:03;;;;;;;2.00;1.90;;;;;;;19.18;70.95;97595.16;6248354;22;20238;-94
2022/06/17 12:27:35;;;;;;;1.60;1.50;;;;;;;22.63;71.50;98179.97;6292819;22;20198;-90
2022/06/17 12:33:17;;;;;;;2.00;1.90;;;;;;;22.63;71.33;98184.19;6258667;22;20198;-92
2022/06/17 12:36:13;;;;;;;1.90;1.80;;;;;;;18.01;70.85;97396.13;6257898;22;20191;-93
2022/06/17 12:58:13;;;;;;;1.90;1.80;;;;;;;22.63;71.30;98168.81;6284719;22;20195;-92
2022/06/17 13:14:12;;;;;;;2.20;2.10;;;;;;;22.63;71.44;98148.31;6280767;22;20180;-94
2022/06/17 13:20:00;;;;;;;1.90;1.80;;;;;;;22.63;71.45;98145.75;6261163;22;20191;-92
2022/06/17 13:22:41;;;;;;;1.70;1.60;;;;;;;22.63;71.30;98154.34;6240565;22;20175;-92
2022/06/17 13:26:14;;;;;;;2.00;1.90;;;;;;;18.06;70.92;97353.94;6273408;22;20274;-93
2022/06/17 13:37:10;;;;;;;2.03;1.93;;;;;;;17.68;70.71;97298.13;6259851;22;20200;-95
2022/06/17 13:48:32;;;;;;;2.07;1.97;;;;;;;22.63;71.44;98149.22;6251863;22;20202;-94
2022/06/17 14:07:54;;;;;;;1.97;1.87;;;;;;;22.64;71.25;98135.56;6258546;22;20180;-94
2022/06/17 14:13:39;;;;;;;2.00;1.90;;;;;;;18.27;72.27;97382.75;6274838;22;20175;-96
2022/06/17 14:16:45;;;;;;;1.90;1.80;;;;;;;18.33;70.99;97406.72;6193318;22;20214;-94
2022/06/17 14:21:53;;;;;;;2.00;1.90;;;;;;;17.13;70.90;97163.72;6297305;22;20171;-93
2022/06/17 14:54:37;;;;;;;1.97;1.80;;;;;;;17.53;71.29;97254.31;6290571;22;20242;-92
2022/06/17 15:34:52;;;;;;;3.00;1.90;;;;;;;22.65;71.37;98109.13;6281279;22;20183;-94
2022/06/17 15:37:36;;;;;;;1.90;1.80;;;;;;;20.16;71.46;97676.41;6206609;22;20189;-93
2022/06/17 15:43:10;;;;;;;2.13;1.80;;;;;;;22.66;71.41;98099.75;6240685;22;20179;-95
2022/06/17 16:11:10;;;;;;;1.73;1.63;;;;;;;18.55;71.28;97383.88;6289492;22;20195;-93
2022/06/17 16:19:22;;;;;;;2.00;1.90;;;;;;;22.66;71.22;98084.38;6285611;22;20183;-94
2022/06/17 16:30:14;;;;;;;2.07;1.87;;;;;;;18.16;70.94;97304.31;6262025;22;20181;-91
2022/06/17 16:35:27;;;;;;;1.90;1.80;;;;;;;20.05;72.57;97694.66;6273026;22;20207;-95
2022/06/17 16:37:54;;;;;;;1.67;1.57;;;;;;;19.61;71.63;97612.25;6248002;22;20223;-93
2022/06/17 16:57:35;;;;;;;2.10;2.00;;;;;;;18.73;71.24;97423.66;6275306;22;20183;-92
2022/06/17 17:00:22;;;;;;;2.00;1.90;;;;;;;19.55;71.01;97570.34;6232147;23;20197;-93
2022/06/17 17:08:20;;;;;;;1.80;1.70;;;;;;;21.29;71.38;97878.16;6279492;22;20203;-92
2022/06/17 17:11:01;;;;;;;2.10;2.00;;;;;;;19.64;71.23;97575.78;6201893;22;20187;-91
2022/06/17 17:13:41;;;;;;;2.07;1.97;;;;;;;17.27;71.01;97211.75;6221812;22;20213;-92
2022/06/17 17:16:22;;;;;;;2.00;1.90;;;;;;;19.47;71.58;97582.81;6177586;23;20172;-93
